Time;durP1;ratioP1;P1;durP2;ratioP2;P2;SDS_P1;SDS_P2;PMS_P1;PMS_P2;Temp;Humidity;BMP_temperature;BMP_pressure;BME280_temperature;BME280_humidity;BME280_pressure;Samples;Min_cycle;Max_cycle;Signal;HPM_P1;HPM_P2
2022/06/21 00:01:32;;;;;;;3.40;1.70;;;;;;;23.69;42.13;101779.44;5031509;28;20137;-75
2022/06/21 00:03:58;;;;;;;7.43;1.98;;;;;;;23.64;42.40;101776.50;5026416;28;20080;-75
2022/06/21 00:06:25;;;;;;;2.80;1.67;;;;;;;23.62;42.32;101778.53;5025406;28;20045;-75
2022/06/21 00:08:51;;;;;;;4.55;1.95;;;;;;;23.58;42.45;101780.72;5029525;28;20048;-74
2022/06/21 00:11:30;;;;;;;4.82;2.20;;;;;;;23.61;42.42;101779.53;5024749;28;20048;-75
2022/06/21 00:13:56;;;;;;;4.35;2.05;;;;;;;23.60;42.41;101778.69;5030404;28;20034;-75
2022/06/21 00:16:23;;;;;;;2.60;1.70;;;;;;;23.58;42.33;101785.22;5029601;28;20052;-75
2022/06/21 00:18:49;;;;;;;3.70;1.92;;;;;;;23.55;42.67;101782.91;5031299;28;20037;-75
2022/06/21 00:21:18;;;;;;;4.30;1.75;;;;;;;23.49;42.44;101771.97;5032001;28;20811;-75
2022/06/21 00:23:44;;;;;;;6.20;2.00;;;;;;;23.50;42.72;101755.00;5034028;28;20052;-74
2022/06/21 00:26:12;;;;;;;2.92;1.63;;;;;;;23.55;42.70;101753.66;5031034;28;20744;-75
2022/06/21 00:28:39;;;;;;;3.10;2.25;;;;;;;23.45;42.74;101760.03;5032351;28;20049;-75
2022/06/21 00:31:27;;;;;;;3.88;2.00;;;;;;;23.46;42.68;101750.22;5026665;28;20054;-74
2022/06/21 00:33:53;;;;;;;2.53;1.70;;;;;;;23.45;42.72;101746.75;5029120;28;20041;-75
2022/06/21 00:36:23;;;;;;;2.83;1.60;;;;;;;23.45;42.74;101748.59;5025810;28;20049;-75
2022/06/21 00:38:50;;;;;;;2.22;1.50;;;;;;;23.44;42.81;101744.28;5025656;28;20037;-75
2022/06/21 00:41:19;;;;;;;2.55;1.50;;;;;;;23.38;42.64;101743.19;5026334;28;20045;-75
2022/06/21 00:43:52;;;;;;;2.90;1.38;;;;;;;23.51;42.64;101753.16;5027624;28;20067;-75
2022/06/21 00:46:27;;;;;;;2.97;1.98;;;;;;;23.38;42.99;101745.84;5031818;28;20044;-75
2022/06/21 00:48:54;;;;;;;4.80;1.70;;;;;;;23.43;42.56;101755.91;5027782;28;20045;-75
2022/06/21 00:51:39;;;;;;;2.95;1.60;;;;;;;23.40;42.93;101750.97;5030922;28;20033;-75
2022/06/21 00:54:17;;;;;;;4.43;2.10;;;;;;;23.39;42.76;101746.66;5026177;28;20045;-75
2022/06/21 00:56:52;;;;;;;2.28;1.70;;;;;;;23.36;42.91;101744.38;5033321;28;20032;-75
2022/06/21 00:59:25;;;;;;;2.17;1.40;;;;;;;23.39;42.66;101749.31;5028285;28;20047;-75
2022/06/21 01:01:55;;;;;;;3.65;2.05;;;;;;;23.34;42.98;101741.03;5030477;28;20045;-75
2022/06/21 01:04:39;;;;;;;3.42;1.60;;;;;;;23.29;42.96;101749.56;5031351;28;20041;-76
2022/06/21 01:07:10;;;;;;;4.72;1.98;;;;;;;23.29;42.91;101751.41;5029250;28;20052;-75
2022/06/21 01:09:45;;;;;;;3.22;1.52;;;;;;;23.28;43.01;101763.84;5033488;28;20072;-75
2022/06/21 01:12:29;;;;;;;2.40;1.70;;;;;;;23.24;43.32;101751.13;5028866;28;20099;-75
2022/06/21 01:15:00;;;;;;;2.38;1.40;;;;;;;23.23;43.32;101746.81;5032655;28;20476;-75
2022/06/21 01:17:29;;;;;;;2.90;1.48;;;;;;;23.24;42.97;101748.47;5030094;28;20391;-75
2022/06/21 01:20:01;;;;;;;7.15;2.33;;;;;;;23.32;43.04;101746.53;5029392;28;20102;-75
2022/06/21 01:22:32;;;;;;;3.75;1.50;;;;;;;23.26;43.03;101735.81;5032660;28;20040;-75
2022/06/21 01:25:12;;;;;;;5.32;1.80;;;;;;;23.22;43.20;101740.66;5023419;28;20029;-75
2022/06/21 01:27:38;;;;;;;5.85;2.22;;;;;;;23.23;43.08;101747.63;5030754;28;20051;-75
2022/06/21 01:30:05;;;;;;;2.67;1.65;;;;;;;23.21;43.20;101747.00;5028981;28;20045;-76
2022/06/21 01:32:31;;;;;;;3.30;1.95;;;;;;;23.19;43.29;101751.66;5029990;28;20031;-75
2022/06/21 01:34:59;;;;;;;2.00;1.50;;;;;;;23.15;43.29;101734.41;5031900;28;20707;-75
2022/06/21 01:37:28;;;;;;;4.85;1.75;;;;;;;23.19;43.21;101733.06;5026461;28;20041;-75
2022/06/21 01:40:02;;;;;;;4.75;1.88;;;;;;;23.13;43.24;101733.75;5031446;28;20035;-75
2022/06/21 01:42:46;;;;;;;3.55;1.70;;;;;;;23.10;43.41;101731.47;5030439;28;20049;-75
2022/06/21 01:45:18;;;;;;;3.90;1.90;;;;;;;23.16;43.46;101720.13;5032671;28;20369;-74
2022/06/21 01:47:51;;;;;;;4.50;1.90;;;;;;;23.11;43.42;101722.50;5032166;28;20035;-75
2022/06/21 01:50:19;;;;;;;3.65;2.10;;;;;;;23.10;43.29;101721.66;5030363;28;20041;-75
2022/06/21 01:52:48;;;;;;;3.00;1.35;;;;;;;23.13;43.30;101723.13;5030451;28;20433;-74
2022/06/21 01:55:26;;;;;;;2.13;1.60;;;;;;;23.06;43.51;101714.25;5029419;28;20099;-75
2022/06/21 01:57:54;;;;;;;2.88;1.70;;;;;;;23.09;43.27;101709.38;5028053;28;20539;-75
2022/06/21 02:00:19;;;;;;;2.63;1.55;;;;;;;23.06;43.42;101708.94;5031450;28;20057;-75
2022/06/21 02:02:51;;;;;;;1.92;1.40;;;;;;;23.01;43.44;101713.97;5031245;28;20115;-75
2022/06/21 02:05:23;;;;;;;2.83;1.67;;;;;;;23.07;43.38;101710.59;5028921;28;20049;-75
2022/06/21 02:07:56;;;;;;;2.30;1.58;;;;;;;23.12;43.09;101710.84;5031609;28;20475;-75
2022/06/21 02:10:24;;;;;;;3.63;1.75;;;;;;;23.07;43.20;101711.41;5025561;28;20037;-75
2022/06/21 02:12:56;;;;;;;2.42;1.55;;;;;;;23.10;43.41;101705.72;5029467;28;20373;-75
2022/06/21 02:15:39;;;;;;;5.97;1.90;;;;;;;23.02;43.44;101705.00;5029819;28;20576;-75
2022/06/21 02:18:09;;;;;;;4.70;2.03;;;;;;;23.02;43.22;101697.03;5027417;28;20072;-75
2022/06/21 02:20:42;;;;;;;2.83;1.75;;;;;;;23.05;43.48;101691.34;5026468;28;20036;-75
2022/06/21 02:23:13;;;;;;;2.83;1.45;;;;;;;23.01;43.33;101696.19;5025656;28;20045;-75
2022/06/21 02:25:40;;;;;;;2.80;1.55;;;;;;;23.05;43.37;101694.00;5031113;28;20029;-75
2022/06/21 02:28:08;;;;;;;1.92;1.63;;;;;;;22.98;43.64;101701.00;5028785;28;20053;-75
2022/06/21 02:30:36;;;;;;;2.33;1.90;;;;;;;22.99;43.46;101703.53;5030294;28;20041;-75
2022/06/21 02:33:04;;;;;;;2.88;1.90;;;;;;;22.94;43.64;101700.56;5030732;28;20521;-76
2022/06/21 02:35:42;;;;;;;2.83;2.03;;;;;;;22.99;43.72;101702.69;5030332;28;20053;-75
2022/06/21 02:38:19;;;;;;;2.50;1.70;;;;;;;23.00;43.54;101697.19;5032976;28;20056;-75
2022/06/21 02:40:49;;;;;;;4.40;2.05;;;;;;;23.02;43.20;101699.69;5028319;28;20116;-75
2022/06/21 02:43:20;;;;;;;1.80;1.67;;;;;;;22.96;43.35;101701.19;5030871;28;20025;-75
2022/06/21 02:45:59;;;;;;;3.00;1.73;;;;;;;22.92;43.65;101708.72;5024948;28;20033;-75
2022/06/21 02:48:28;;;;;;;4.35;1.80;;;;;;;22.91;43.47;101700.91;5026920;28;20720;-75
2022/06/21 02:51:02;;;;;;;3.05;1.65;;;;;;;22.92;43.77;101711.38;5026772;28;20029;-75
2022/06/21 02:53:33;;;;;;;3.63;1.75;;;;;;;22.88;43.41;101709.25;5029237;28;20029;-76
2022/06/21 02:56:05;;;;;;;2.58;1.83;;;;;;;22.92;43.56;101718.50;5024074;28;20695;-76
2022/06/21 02:58:39;;;;;;;2.58;1.70;;;;;;;22.92;43.66;101705.22;5031067;28;20040;-75
2022/06/21 03:01:13;;;;;;;2.70;1.70;;;;;;;22.91;43.43;101695.59;5025179;28;20099;-75
2022/06/21 03:03:39;;;;;;;2.80;1.77;;;;;;;22.87;43.38;101689.84;5029925;28;20583;-75
2022/06/21 03:06:08;;;;;;;2.40;1.63;;;;;;;22.90;43.66;101678.84;5029110;28;20102;-74
2022/06/21 03:08:34;;;;;;;3.35;1.77;;;;;;;22.85;43.58;101675.91;5031049;28;20108;-74
2022/06/21 03:11:00;;;;;;;3.65;1.90;;;;;;;22.81;43.77;101671.94;5025467;28;20759;-75
2022/06/21 03:13:29;;;;;;;2.22;1.65;;;;;;;22.83;43.44;101667.31;5028161;28;20163;-75
2022/06/21 03:16:06;;;;;;;2.85;1.52;;;;;;;;;;5037594;28;20526;-75
2022/06/21 03:18:46;;;;;;;2.00;1.55;;;;;;;22.84;43.63;101666.28;5032029;28;20034;-75
2022/06/21 03:21:13;;;;;;;;;;;;;;;22.77;43.92;101669.78;5027453;28;20044;-74
2022/06/21 03:23:41;;;;;;;3.05;1.83;;;;;;;22.77;43.51;101667.97;5031197;28;20295;-75
2022/06/21 03:26:08;;;;;;;3.53;1.90;;;;;;;22.75;43.73;101664.66;5026449;28;20036;-74
2022/06/21 03:28:41;;;;;;;1.88;1.73;;;;;;;22.80;43.86;101664.13;5030889;28;20467;-74
2022/06/21 03:31:12;;;;;;;4.22;1.83;;;;;;;22.78;43.64;101658.16;5031570;28;20111;-75
2022/06/21 03:33:44;;;;;;;2.67;1.60;;;;;;;22.77;43.51;101667.97;5028093;28;20037;-75
2022/06/21 03:36:20;;;;;;;2.95;1.85;;;;;;;22.79;43.72;101676.56;5025221;28;20385;-74
2022/06/21 03:39:08;;;;;;;3.83;2.00;;;;;;;22.68;43.64;101663.75;5035446;28;20048;-75
2022/06/21 03:41:43;;;;;;;2.78;1.77;;;;;;;22.76;43.83;101671.63;5018811;28;20048;-75
2022/06/21 03:44:30;;;;;;;2.95;1.77;;;;;;;22.75;43.53;101674.47;5029721;28;20160;-74
2022/06/21 03:47:19;;;;;;;3.67;1.80;;;;;;;22.74;43.61;101680.78;5031301;28;20501;-74
2022/06/21 03:49:53;;;;;;;3.75;1.88;;;;;;;22.71;43.72;101675.84;5026203;28;20040;-75
2022/06/21 03:53:00;;;;;;;2.35;1.70;;;;;;;22.72;43.91;101682.78;5027778;28;20039;-75
2022/06/21 03:55:48;;;;;;;2.55;1.98;;;;;;;22.74;43.84;101675.47;5010476;28;20040;-75
2022/06/21 03:58:35;;;;;;;2.63;1.77;;;;;;;22.68;43.72;101689.47;5024936;28;20049;-74
2022/06/21 04:01:14;;;;;;;3.38;1.92;;;;;;;22.71;43.92;101700.56;5031323;28;20041;-75
2022/06/21 04:03:50;;;;;;;3.90;1.70;;;;;;;22.68;43.79;101700.91;5030349;28;20028;-75
2022/06/21 04:06:25;;;;;;;4.07;1.95;;;;;;;22.67;43.67;101703.75;5024175;28;20077;-75
2022/06/21 04:09:00;;;;;;;2.65;2.00;;;;;;;22.78;43.50;101692.69;5028229;28;20825;-75
2022/06/21 04:11:38;;;;;;;3.95;2.30;;;;;;;22.69;43.70;101702.56;5028424;28;20047;-75
2022/06/21 04:14:15;;;;;;;2.65;1.85;;;;;;;22.74;43.83;101704.69;5029881;28;20499;-75
2022/06/21 04:16:53;;;;;;;1.65;1.55;;;;;;;22.65;43.76;101703.09;5026624;28;20064;-75
2022/06/21 04:19:51;;;;;;;3.30;1.92;;;;;;;22.66;44.01;101708.22;5035169;28;20045;-76
2022/06/21 04:22:46;;;;;;;2.53;2.25;;;;;;;22.62;43.75;101712.22;5028899;28;20103;-75
2022/06/21 04:25:35;;;;;;;3.65;2.10;;;;;;;22.66;43.68;101710.06;5027163;28;20715;-75
2022/06/21 04:28:10;;;;;;;2.35;1.75;;;;;;;22.66;43.85;101715.38;5035159;28;20155;-75
2022/06/21 04:30:48;;;;;;;3.00;1.90;;;;;;;22.72;43.85;101712.00;5033343;28;20799;-75
2022/06/21 04:33:26;;;;;;;3.90;2.10;;;;;;;22.71;43.58;101708.53;5031174;28;20041;-74
2022/06/21 04:36:01;;;;;;;3.15;1.67;;;;;;;22.66;43.52;101705.59;5030915;28;20052;-75
2022/06/21 04:38:57;;;;;;;2.13;1.80;;;;;;;22.59;43.85;101704.63;5029696;28;20037;-75
2022/06/21 04:41:40;;;;;;;2.00;1.77;;;;;;;22.62;43.77;101693.63;5029221;28;20112;-75
2022/06/21 04:44:13;;;;;;;4.00;1.80;;;;;;;22.66;43.94;101692.31;5029388;28;21241;-75
2022/06/21 04:46:46;;;;;;;3.42;1.92;;;;;;;22.61;43.93;101692.81;5031766;28;20517;-75
2022/06/21 04:49:21;;;;;;;1.95;1.60;;;;;;;22.66;43.80;101702.94;5032419;28;20096;-75
2022/06/21 04:52:05;;;;;;;2.95;1.80;;;;;;;22.60;44.05;101703.59;5032514;28;20637;-75
2022/06/21 04:54:34;;;;;;;2.70;2.00;;;;;;;22.59;43.69;101705.44;5028121;28;20033;-75
2022/06/21 04:57:03;;;;;;;2.15;1.88;;;;;;;22.62;43.86;101706.91;5033425;28;20135;-75
2022/06/21 04:59:37;;;;;;;2.40;1.70;;;;;;;22.61;43.72;101710.56;5032791;28;20037;-75
2022/06/21 05:02:04;;;;;;;3.05;1.80;;;;;;;22.58;43.70;101695.81;5034266;28;20127;-75
2022/06/21 05:04:33;;;;;;;2.00;1.77;;;;;;;22.63;43.75;101713.06;5032301;28;20037;-75
2022/06/21 05:07:01;;;;;;;2.10;1.33;;;;;;;22.64;43.99;101720.03;5032495;28;20032;-75
2022/06/21 05:09:32;;;;;;;1.70;1.60;;;;;;;22.66;43.80;101715.38;5031552;28;20119;-75
2022/06/21 05:12:05;;;;;;;3.28;1.70;;;;;;;22.65;43.92;101711.91;5034218;28;20382;-75
2022/06/21 05:14:39;;;;;;;2.92;1.92;;;;;;;22.64;43.67;101715.56;5029654;28;20051;-75
2022/06/21 05:17:10;;;;;;;3.38;2.00;;;;;;;22.61;43.85;101721.19;5032059;28;20038;-75
2022/06/21 05:19:41;;;;;;;2.10;1.70;;;;;;;22.67;43.76;101714.38;5034561;28;20655;-75
2022/06/21 05:22:16;;;;;;;3.28;1.73;;;;;;;22.61;43.85;101724.66;5029334;28;20119;-75
2022/06/21 05:24:44;;;;;;;2.38;1.77;;;;;;;22.66;43.65;101733.97;5033703;28;20479;-75
2022/06/21 05:27:19;;;;;;;3.72;2.05;;;;;;;22.66;43.81;101737.44;5026787;28;20102;-75
2022/06/21 05:29:55;;;;;;;3.05;2.00;;;;;;;22.65;43.67;101734.97;5031070;28;21293;-75
2022/06/21 05:32:26;;;;;;;2.30;1.73;;;;;;;22.67;43.53;101730.28;5029376;28;20083;-75
2022/06/21 05:34:59;;;;;;;2.58;2.00;;;;;;;22.64;43.98;101734.13;5029590;28;20057;-76
2022/06/21 05:37:27;;;;;;;1.88;1.77;;;;;;;22.67;43.75;101730.28;5029318;28;20483;-75
2022/06/21 05:39:55;;;;;;;1.80;1.70;;;;;;;22.61;44.16;101734.47;5026701;28;20056;-75
2022/06/21 05:42:24;;;;;;;1.85;1.70;;;;;;;22.64;43.83;101733.31;5025937;28;20452;-75
2022/06/21 05:44:59;;;;;;;2.35;1.70;;;;;;;22.63;44.04;101726.34;5027122;28;20041;-75
2022/06/21 05:47:38;;;;;;;2.20;1.70;;;;;;;22.68;43.79;101731.94;5032648;28;20033;-75
2022/06/21 05:50:06;;;;;;;3.13;1.70;;;;;;;22.67;43.61;101725.00;5031772;28;20164;-75
2022/06/21 05:52:35;;;;;;;2.65;1.70;;;;;;;22.70;43.75;101725.47;5028379;28;20077;-75
2022/06/21 05:55:08;;;;;;;2.53;1.80;;;;;;;22.66;43.67;101723.34;5031038;28;20044;-75
2022/06/21 05:57:53;;;;;;;1.67;1.58;;;;;;;22.68;43.48;101721.31;5026307;28;20056;-75
2022/06/21 06:00:51;;;;;;;1.80;1.70;;;;;;;22.75;43.44;101720.44;5030190;28;20033;-75
2022/06/21 06:03:29;;;;;;;1.90;1.75;;;;;;;22.69;43.72;101730.94;5024256;28;20152;-75
2022/06/21 06:05:56;;;;;;;2.65;1.88;;;;;;;22.67;43.87;101733.78;5031998;28;20704;-75
2022/06/21 06:08:28;;;;;;;4.78;1.75;;;;;;;22.80;43.41;101727.84;5034128;28;20033;-75
2022/06/21 06:10:56;;;;;;;3.13;1.83;;;;;;;22.83;43.31;101731.03;5029786;28;20037;-75
2022/06/21 06:13:28;;;;;;;3.63;1.90;;;;;;;22.74;43.40;101723.25;5029601;28;20039;-75
2022/06/21 06:15:58;;;;;;;2.15;1.92;;;;;;;22.77;43.47;101715.75;5032203;28;20041;-75
2022/06/21 06:18:48;;;;;;;2.05;1.85;;;;;;;22.79;43.52;101715.59;5027142;28;20049;-75
2022/06/21 06:21:19;;;;;;;3.22;1.98;;;;;;;22.80;43.70;101717.22;5025889;28;20060;-75
2022/06/21 06:23:52;;;;;;;4.13;2.38;;;;;;;22.78;43.69;101716.59;5029347;28;20123;-75
2022/06/21 06:26:25;;;;;;;2.38;1.52;;;;;;;22.83;43.77;101723.06;5027568;28;20059;-75
2022/06/21 06:29:11;;;;;;;2.22;1.80;;;;;;;22.81;43.81;101717.09;5025078;28;20044;-75
2022/06/21 06:31:39;;;;;;;2.33;1.70;;;;;;;;;;5030352;28;20036;-75
2022/06/21 06:34:28;;;;;;;2.45;1.85;;;;;;;22.79;43.86;101721.72;5025539;28;20070;-74
2022/06/21 06:37:02;;;;;;;1.98;1.60;;;;;;;22.86;43.47;101725.38;5028595;28;20033;-75
2022/06/21 06:39:30;;;;;;;3.55;2.40;;;;;;;22.79;43.61;101718.25;5033201;28;20052;-75
2022/06/21 06:42:18;;;;;;;2.05;1.80;;;;;;;22.84;43.63;101713.28;5030351;28;20036;-75
2022/06/21 06:44:54;;;;;;;3.67;1.95;;;;;;;22.85;43.69;101709.63;5026342;28;20390;-75
2022/06/21 06:47:28;;;;;;;2.75;2.08;;;;;;;22.84;43.34;101698.16;5025863;28;20615;-75
2022/06/21 06:50:03;;;;;;;2.45;1.80;;;;;;;22.85;43.72;101705.13;5030664;28;21271;-75
2022/06/21 06:52:35;;;;;;;2.38;1.58;;;;;;;22.84;43.93;101706.13;5031139;28;21462;-75
2022/06/21 06:55:21;;;;;;;3.38;1.90;;;;;;;22.84;43.54;101700.00;5026095;28;20108;-75
2022/06/21 06:57:55;;;;;;;2.58;1.98;;;;;;;22.91;43.66;101700.91;5027019;28;20079;-75
2022/06/21 07:00:26;;;;;;;2.25;1.83;;;;;;;22.94;43.64;101697.06;5028073;28;20546;-75
2022/06/21 07:03:13;;;;;;;2.88;1.90;;;;;;;22.96;43.41;101697.72;5026652;28;20100;-76
2022/06/21 07:05:49;;;;;;;1.92;1.83;;;;;;;23.03;43.16;101703.97;5032157;28;20029;-75
2022/06/21 07:08:33;;;;;;;2.65;2.00;;;;;;;22.96;43.72;101711.81;5030031;28;20589;-74
2022/06/21 07:11:03;;;;;;;3.97;1.90;;;;;;;22.92;43.64;101721.97;5032202;28;20483;-75
2022/06/21 07:13:29;;;;;;;2.65;1.88;;;;;;;22.99;43.37;101737.22;5029615;28;20032;-75
2022/06/21 07:16:04;;;;;;;2.50;1.90;;;;;;;23.02;43.31;101720.94;5030872;28;20075;-75
2022/06/21 07:18:39;;;;;;;2.67;1.98;;;;;;;22.87;43.14;101734.16;5032443;28;20487;-76
2022/06/21 07:21:05;;;;;;;2.38;1.83;;;;;;;22.94;42.45;101728.94;5033719;28;20056;-76
2022/06/21 07:23:31;;;;;;;3.38;2.20;;;;;;;22.97;42.53;101734.72;5033731;28;20041;-75
2022/06/21 07:26:04;;;;;;;3.40;2.10;;;;;;;23.00;42.48;101730.91;5027982;28;20037;-76
2022/06/21 07:28:48;;;;;;;7.22;2.20;;;;;;;23.07;42.70;101731.84;5028340;28;20033;-75
2022/06/21 07:31:23;;;;;;;4.72;2.45;;;;;;;23.12;42.43;101740.09;5028501;28;20044;-75
2022/06/21 07:33:59;;;;;;;4.50;2.42;;;;;;;23.32;42.18;101738.56;5026566;28;20626;-75
2022/06/21 07:36:30;;;;;;;4.57;2.08;;;;;;;23.19;42.25;101730.41;5029554;28;20088;-75
2022/06/21 07:39:04;;;;;;;4.22;2.20;;;;;;;23.36;41.93;101731.06;5034244;28;20102;-76
2022/06/21 07:41:37;;;;;;;4.22;2.38;;;;;;;23.26;42.29;101744.63;5027452;28;20103;-76
2022/06/21 07:44:21;;;;;;;4.00;2.47;;;;;;;23.14;42.66;101738.06;5030804;28;20523;-76
2022/06/21 07:46:51;;;;;;;2.17;1.90;;;;;;;23.17;42.16;101743.88;5028067;28;20037;-76
2022/06/21 07:49:36;;;;;;;4.88;2.55;;;;;;;23.26;42.06;101744.63;5027760;28;20121;-76
2022/06/21 07:52:11;;;;;;;4.63;2.20;;;;;;;23.42;41.60;101757.75;5025840;28;20037;-76
2022/06/21 07:54:45;;;;;;;3.65;2.30;;;;;;;23.55;41.55;101756.31;5037890;28;20065;-76
2022/06/21 07:57:16;;;;;;;3.97;1.92;;;;;;;23.50;41.59;101747.03;5039233;28;20039;-75
2022/06/21 07:59:52;;;;;;;5.65;2.92;;;;;;;23.59;41.39;101745.16;5033566;28;20034;-76
2022/06/21 08:08:25;;;;;;;4.65;2.10;;;;;;;23.69;41.14;101750.19;5034933;28;20044;-76
2022/06/21 08:11:01;;;;;;;3.80;2.20;;;;;;;23.74;40.70;101753.13;5031982;28;20048;-76
2022/06/21 08:13:28;;;;;;;4.43;2.45;;;;;;;23.80;40.76;101745.25;5030294;28;20053;-76
2022/06/21 08:16:13;;;;;;;4.72;2.35;;;;;;;23.76;40.86;101756.44;5038054;28;20786;-75
2022/06/21 08:19:01;;;;;;;4.57;2.30;;;;;;;23.78;40.83;101751.75;5029135;28;20079;-75
2022/06/21 08:21:37;;;;;;;3.92;2.22;;;;;;;23.84;40.68;101755.50;5030013;28;20486;-77
2022/06/21 08:24:21;;;;;;;3.85;2.40;;;;;;;23.61;41.39;101747.63;5026753;28;20066;-71
2022/06/21 08:26:58;;;;;;;4.45;2.75;;;;;;;23.86;40.66;101749.00;5008562;28;20091;-69
2022/06/21 08:29:31;;;;;;;5.05;2.47;;;;;;;23.99;40.24;101743.03;5026664;28;20088;-70
2022/06/21 08:32:33;;;;;;;6.45;2.28;;;;;;;24.32;39.67;101748.78;5029513;28;20144;-69
2022/06/21 08:35:20;;;;;;;4.43;2.97;;;;;;;24.08;39.76;101739.28;5018081;28;20061;-67
2022/06/21 08:37:59;;;;;;;5.18;2.85;;;;;;;24.07;39.50;101737.63;5032669;28;20044;-67
2022/06/21 08:40:56;;;;;;;5.93;2.50;;;;;;;24.51;38.70;101736.69;4991895;28;20483;-67
2022/06/21 08:43:58;;;;;;;6.78;2.72;;;;;;;24.49;38.73;101736.91;5015736;28;20570;-68
2022/06/21 08:46:58;;;;;;;4.68;2.10;;;;;;;24.31;38.53;101728.50;5035714;28;20029;-71
2022/06/21 08:49:42;;;;;;;;;;;;;;;24.26;38.77;101723.72;5037661;28;20039;-71
2022/06/21 08:52:26;;;;;;;3.70;2.20;;;;;;;24.46;39.01;101713.31;4991670;28;20236;-66
2022/06/21 08:55:12;;;;;;;5.65;2.63;;;;;;;24.55;38.93;101706.84;5043489;28;21473;-65
2022/06/21 08:58:07;;;;;;;4.32;2.45;;;;;;;24.69;38.13;101711.28;4981471;28;20712;-65
2022/06/21 09:00:44;;;;;;;3.20;2.13;;;;;;;24.64;38.52;101718.22;5031671;28;20047;-67
2022/06/21 09:03:21;;;;;;;4.60;2.40;;;;;;;24.73;38.49;101713.56;4996000;28;20084;-68
2022/06/21 09:06:11;;;;;;;2.90;2.05;;;;;;;24.80;38.01;101719.78;5036310;28;20691;-69
2022/06/21 09:09:04;;;;;;;4.57;2.40;;;;;;;24.84;36.63;101716.53;4991417;28;20048;-67
2022/06/21 09:11:48;;;;;;;3.22;2.30;;;;;;;24.68;35.35;101714.13;5032459;28;20041;-71
2022/06/21 09:14:30;;;;;;;7.50;2.45;;;;;;;24.90;35.67;101706.94;4995374;28;20102;-68
2022/06/21 09:17:20;;;;;;;4.85;2.70;;;;;;;24.92;35.74;101702.25;5031811;28;20044;-67
2022/06/21 09:19:55;;;;;;;;;;;;;;;24.92;36.67;101703.06;5006331;28;20033;-72
2022/06/21 09:22:39;;;;;;;6.00;2.63;;;;;;;24.37;36.52;101699.28;5032019;28;19974;-68
2022/06/21 09:28:28;;;;;;;4.47;2.33;;;;;;;24.73;36.43;101703.72;4993497;28;20117;-85
2022/06/21 09:31:09;;;;;;;4.45;2.17;;;;;;;24.92;36.74;101700.41;4930426;28;20041;-84
2022/06/21 09:33:34;;;;;;;3.38;2.22;;;;;;;24.94;36.77;101708.22;4982474;28;20122;-82
2022/06/21 09:36:17;;;;;;;2.58;2.10;;;;;;;24.64;37.51;101703.06;4950357;28;21553;-86
2022/06/21 09:38:42;;;;;;;4.18;2.20;;;;;;;24.93;37.28;101707.38;4991328;28;20048;-88
2022/06/21 09:41:14;;;;;;;3.10;2.30;;;;;;;24.97;36.70;101699.84;4943549;28;21933;-85
2022/06/21 09:43:50;;;;;;;4.07;2.17;;;;;;;25.09;36.72;101698.31;4987411;28;20049;-87
2022/06/21 09:46:40;;;;;;;2.40;2.20;;;;;;;25.21;35.99;101699.44;4973991;28;20041;-83
2022/06/21 09:49:20;;;;;;;5.45;2.45;;;;;;;25.19;35.91;101695.31;4983290;28;20058;-87
2022/06/21 09:52:12;;;;;;;4.97;2.20;;;;;;;25.19;35.90;101700.66;4962767;28;20100;-81
2022/06/21 09:54:41;;;;;;;6.35;2.30;;;;;;;25.19;36.21;101698.00;4983593;28;20121;-80
2022/06/21 09:57:37;;;;;;;3.13;1.95;;;;;;;25.14;36.19;101673.78;4946229;28;20138;-86
2022/06/21 10:00:18;;;;;;;7.65;2.38;;;;;;;25.20;36.41;101692.47;4996247;28;20580;-85
2022/06/21 10:02:59;;;;;;;5.45;2.35;;;;;;;25.25;36.54;101691.88;4945343;28;20054;-87
2022/06/21 10:05:32;;;;;;;4.45;2.13;;;;;;;25.14;35.68;101684.44;4979855;28;20400;-89
2022/06/21 10:08:14;;;;;;;6.13;2.42;;;;;;;24.97;36.32;101694.53;4983806;28;20572;-85
2022/06/21 10:10:52;;;;;;;8.82;2.45;;;;;;;25.15;36.32;101681.56;4965901;28;20026;-87
2022/06/21 10:13:42;;;;;;;3.55;2.20;;;;;;;25.09;36.45;101677.00;4983937;28;20038;-89
2022/06/21 10:16:22;;;;;;;4.35;2.13;;;;;;;25.10;37.02;101681.31;4973317;28;20039;-87
2022/06/21 10:19:05;;;;;;;4.20;1.63;;;;;;;25.06;36.92;101680.06;5001753;28;20512;-91
2022/06/21 10:22:08;;;;;;;5.55;2.30;;;;;;;24.86;35.93;101681.72;4972976;28;20031;-89
2022/06/21 10:25:26;;;;;;;11.15;1.90;;;;;;;24.70;37.63;101672.97;4978253;28;20049;-92
2022/06/21 10:28:04;;;;;;;7.32;2.45;;;;;;;24.25;37.72;101654.72;4989708;28;20052;-93
2022/06/21 10:30:48;;;;;;;5.32;2.78;;;;;;;24.80;36.32;101675.31;4994957;28;20415;-92
2022/06/21 10:33:46;;;;;;;3.70;2.25;;;;;;;24.50;36.23;101656.00;4995695;28;20089;-93
2022/06/21 10:36:53;;;;;;;6.00;2.55;;;;;;;24.57;35.83;101653.38;4997993;28;20042;-93
2022/06/21 10:39:34;;;;;;;4.90;2.13;;;;;;;24.93;35.89;101666.59;4960742;28;20039;-93
2022/06/21 10:45:15;;;;;;;2.78;2.05;;;;;;;24.61;36.33;101647.50;5016871;28;20034;-93
2022/06/21 10:48:08;;;;;;;4.07;2.20;;;;;;;24.59;36.04;101651.34;5015841;28;20356;-93
2022/06/21 10:50:58;;;;;;;4.50;1.92;;;;;;;24.70;36.10;101657.00;4996902;28;20453;-93
2022/06/21 10:53:34;;;;;;;7.22;2.20;;;;;;;24.83;36.22;101647.47;4988294;28;20030;-89
2022/06/21 11:01:16;;;;;;;6.05;2.15;;;;;;;24.79;36.15;101627.56;4947680;28;20038;-82
2022/06/21 11:02:35;;;;;;;3.03;1.90;;;;;;;25.10;36.81;101637.84;4983068;28;20035;-85
2022/06/21 11:05:17;;;;;;;6.25;2.35;;;;;;;24.97;37.17;101617.25;4956059;28;20035;-88
2022/06/21 11:07:49;;;;;;;3.13;2.08;;;;;;;25.07;36.97;101635.56;4957286;28;20042;-87
2022/06/21 11:10:22;;;;;;;3.60;2.10;;;;;;;25.02;37.18;101630.03;4966918;28;20072;-89
2022/06/21 11:13:04;;;;;;;3.22;1.92;;;;;;;25.04;34.85;101625.31;4982064;28;20038;-87
2022/06/21 11:15:49;;;;;;;4.95;2.00;;;;;;;25.03;36.20;101621.00;4938867;28;20126;-88
2022/06/21 11:18:42;;;;;;;3.22;1.80;;;;;;;25.14;35.22;101636.47;4984272;28;20038;-89
2022/06/21 11:21:14;;;;;;;2.15;1.92;;;;;;;25.12;36.18;101619.81;4983899;28;20053;-86
2022/06/21 11:23:46;;;;;;;2.58;1.95;;;;;;;25.12;37.33;101617.16;4963470;28;20026;-85
2022/06/21 11:26:33;;;;;;;6.00;2.10;;;;;;;25.24;35.70;101620.91;4972666;28;20042;-89
2022/06/21 11:29:38;;;;;;;4.50;2.00;;;;;;;25.21;36.88;101602.66;4994480;28;20111;-89
2022/06/21 11:32:04;;;;;;;7.20;2.10;;;;;;;25.30;37.21;101620.13;4959689;28;20088;-88
2022/06/21 11:34:44;;;;;;;4.38;1.90;;;;;;;25.33;37.69;101618.94;4981372;28;20468;-84
2022/06/21 11:37:49;;;;;;;3.15;1.88;;;;;;;25.27;38.19;101623.19;4974507;28;20397;-85
2022/06/21 11:40:39;;;;;;;3.92;2.10;;;;;;;25.46;36.36;101608.31;4938859;28;20634;-86
2022/06/21 11:43:29;;;;;;;2.25;1.67;;;;;;;25.55;35.94;101617.81;4983119;28;20034;-86
2022/06/21 11:46:21;;;;;;;6.50;2.30;;;;;;;25.59;37.05;101617.19;4949656;28;20034;-84
2022/06/21 11:49:11;;;;;;;3.65;2.30;;;;;;;25.61;36.01;101617.00;4981970;28;20194;-84
2022/06/21 11:51:52;;;;;;;4.35;2.40;;;;;;;25.68;36.70;101615.22;4949188;28;20034;-88
2022/06/21 11:54:29;;;;;;;4.82;2.50;;;;;;;25.65;37.51;101610.22;4985435;28;20048;-91
2022/06/21 11:57:18;;;;;;;4.30;2.40;;;;;;;25.66;36.97;101603.88;4955728;28;20734;-87
2022/06/21 11:59:55;;;;;;;6.38;2.25;;;;;;;25.69;37.08;101597.38;4985599;28;20089;-87
2022/06/21 12:02:37;;;;;;;7.50;2.63;;;;;;;25.68;37.84;101593.88;4942953;28;20034;-84
2022/06/21 12:05:28;;;;;;;4.88;2.13;;;;;;;25.79;36.66;101600.47;4982575;28;20374;-82
2022/06/21 12:08:21;;;;;;;6.43;2.40;;;;;;;25.85;37.13;101602.31;4960937;28;20381;-86
2022/06/21 12:11:05;;;;;;;4.95;2.40;;;;;;;25.86;36.31;101598.66;4982097;28;20050;-82
2022/06/21 12:14:13;;;;;;;3.63;1.95;;;;;;;25.91;36.47;101590.88;4927849;28;20042;-82
2022/06/21 12:16:51;;;;;;;6.22;2.50;;;;;;;25.82;35.89;101592.06;4968493;28;20053;-84
2022/06/21 12:19:21;;;;;;;5.93;2.50;;;;;;;25.84;36.37;101582.00;4941895;28;20089;-81
2022/06/21 12:21:53;;;;;;;7.05;2.10;;;;;;;25.75;36.11;101567.22;4993668;28;20782;-85
2022/06/21 12:24:24;;;;;;;8.50;2.35;;;;;;;24.98;37.41;101570.94;4977034;28;20075;-88
2022/06/21 12:26:50;;;;;;;4.32;2.28;;;;;;;24.65;36.81;101568.88;4979553;28;20126;-88
2022/06/21 12:29:18;;;;;;;3.30;1.88;;;;;;;24.47;37.02;101560.53;4977444;28;20983;-88